Asbury Park, NJ

6:01 PM EST on December 08, 2016 (GMT -0500)
Ocean Grove | | Change Station

Elev 56 ft 40.21 °N, 74.01 °W | Updated 6 seconds ago

Partly Cloudy
Partly Cloudy
40.0 °F
Feels Like 33 °F
N
12.0
Wind Variable Wind from West

Today
High -- | Low -- °F
--% Chance of Precip.
Yesterday
High -- | Low -- °F
Precip. -- in
Pressure 29.99 in
Visibility 10.0 miles
Clouds Clear
Windchill 33 °F
Dew Point 20 °F
Humidity 45%
Rainfall 0.00 in
Snow Depth Not available.
7:06 AM 4:29 PM
Waxing Gibbous, 67% visible
METAR KBLM 082256Z AUTO 27006KT 10SM CLR 03/M07 A2997 RMK AO2 SLP155 T00281072
Pressure 29.99 in
Visibility 10.0 miles
Clouds Clear
Windchill 33 °F
Dew Point 20 °F
Humidity 45%
Rainfall 0.00 in
Snow Depth Not available.
7:06 AM 4:29 PM
Waxing Gibbous, 67% visible
METAR KBLM 082256Z AUTO 27006KT 10SM CLR 03/M07 A2997 RMK AO2 SLP155 T00281072

10-Day Weather Forecast

Almanac

Astronomy

Dec. 08, 2016 Rise Set
Actual Time
Civil Twilight
Nautical Twilight
Astronomical Twilight
Moon
Length of Visible Light
Length of Day
Tomorrow will be .
, % of the Moon is Illuminated

Today's Extremes

State Highs State Lows

Community

WunderPhotos

Upload Photos

1,956,277 photos uploaded!

WunderBlog® & News

Nearby

Air Quality

  Air Quality AQ Index Pollutant
Not available.

Snow Depth

Station Depth Elevation

Earthquake Activity

City Distance Mag. Time & Date
Minimum magnitude displayed is 2.5.

Coastal Water Temperatures

Place Temperature

Stations

Nearby Weather Stations

Station Location Temp. Windchill Dew Point Humidity Wind Precip. Elev Updated Type
                   

Watches & Warnings

There are currently no watches in effect.